sensor_id;sensor_type;location;lat;lon;timestamp;pressure;altitude;pressure_sealevel;temperature;humidity
79527;BME280;68974;47.754;-3.364;2023-05-10T00:00:43;101897.47;;;11.93;74.34
79527;BME280;68974;47.754;-3.364;2023-05-10T00:03:09;101886.69;;;11.87;74.92
79527;BME280;68974;47.754;-3.364;2023-05-10T00:05:34;101894.06;;;11.81;74.80
79527;BME280;68974;47.754;-3.364;2023-05-10T00:08:00;101893.53;;;11.84;74.85
79527;BME280;68974;47.754;-3.364;2023-05-10T00:10:25;101894.16;;;11.91;74.87
79527;BME280;68974;47.754;-3.364;2023-05-10T00:12:51;101895.72;;;11.82;74.60
79527;BME280;68974;47.754;-3.364;2023-05-10T00:15:16;101892.41;;;11.80;74.75
79527;BME280;68974;47.754;-3.364;2023-05-10T00:17:41;101894.78;;;11.71;74.93
79527;BME280;68974;47.754;-3.364;2023-05-10T00:20:07;101881.47;;;11.63;76.15
79527;BME280;68974;47.754;-3.364;2023-05-10T00:22:33;101876.91;;;11.74;75.23
79527;BME280;68974;47.754;-3.364;2023-05-10T00:24:58;101882.88;;;11.66;75.71
79527;BME280;68974;47.754;-3.364;2023-05-10T00:27:24;101875.66;;;11.60;75.84
79527;BME280;68974;47.754;-3.364;2023-05-10T00:29:49;101874.63;;;11.66;76.04
79527;BME280;68974;47.754;-3.364;2023-05-10T00:32:15;101864.44;;;11.66;75.94
79527;BME280;68974;47.754;-3.364;2023-05-10T00:34:40;101868.53;;;11.64;75.95
79527;BME280;68974;47.754;-3.364;2023-05-10T00:37:05;101861.41;;;11.68;75.63
79527;BME280;68974;47.754;-3.364;2023-05-10T00:39:31;101868.47;;;11.59;76.14
79527;BME280;68974;47.754;-3.364;2023-05-10T00:41:56;101859.72;;;11.62;76.02
79527;BME280;68974;47.754;-3.364;2023-05-10T00:44:22;101864.69;;;11.65;75.91
79527;BME280;68974;47.754;-3.364;2023-05-10T00:46:48;101867.97;;;11.62;76.12
79527;BME280;68974;47.754;-3.364;2023-05-10T00:49:15;101864.66;;;11.60;76.43
79527;BME280;68974;47.754;-3.364;2023-05-10T00:51:40;101860.28;;;11.64;76.11
79527;BME280;68974;47.754;-3.364;2023-05-10T00:54:09;101864.66;;;11.60;76.27
79527;BME280;68974;47.754;-3.364;2023-05-10T00:56:36;101859.31;;;11.48;76.54
79527;BME280;68974;47.754;-3.364;2023-05-10T00:59:01;101870.06;;;11.50;76.25
79527;BME280;68974;47.754;-3.364;2023-05-10T01:01:28;101869.22;;;11.49;77.17
79527;BME280;68974;47.754;-3.364;2023-05-10T01:03:54;101861.53;;;11.51;76.54
79527;BME280;68974;47.754;-3.364;2023-05-10T01:06:20;101866.22;;;11.51;77.15
79527;BME280;68974;47.754;-3.364;2023-05-10T01:08:46;101863.22;;;11.52;77.22
79527;BME280;68974;47.754;-3.364;2023-05-10T01:11:12;101866.00;;;11.57;76.65
79527;BME280;68974;47.754;-3.364;2023-05-10T01:13:39;101869.56;;;11.53;76.76
79527;BME280;68974;47.754;-3.364;2023-05-10T01:16:06;101860.75;;;11.56;77.42
79527;BME280;68974;47.754;-3.364;2023-05-10T01:18:38;101869.75;;;11.73;76.35
79527;BME280;68974;47.754;-3.364;2023-05-10T01:34:50;101849.91;;;11.44;77.64
79527;BME280;68974;47.754;-3.364;2023-05-10T01:37:27;101849.34;;;11.42;78.05
79527;BME280;68974;47.754;-3.364;2023-05-10T01:40:01;101856.13;;;11.35;78.90
79527;BME280;68974;47.754;-3.364;2023-05-10T01:42:31;101846.91;;;11.46;77.79
79527;BME280;68974;47.754;-3.364;2023-05-10T01:45:20;101853.53;;;11.50;78.02
79527;BME280;68974;47.754;-3.364;2023-05-10T01:48:05;101853.03;;;11.53;78.05
79527;BME280;68974;47.754;-3.364;2023-05-10T01:50:32;101850.53;;;11.51;77.87
79527;BME280;68974;47.754;-3.364;2023-05-10T01:53:00;101855.78;;;11.53;78.35
79527;BME280;68974;47.754;-3.364;2023-05-10T01:55:29;101846.41;;;11.54;78.42
79527;BME280;68974;47.754;-3.364;2023-05-10T01:58:02;101844.00;;;11.57;78.20
79527;BME280;68974;47.754;-3.364;2023-05-10T02:00:29;101837.56;;;11.73;78.05
79527;BME280;68974;47.754;-3.364;2023-05-10T02:02:57;101841.19;;;11.79;77.61
79527;BME280;68974;47.754;-3.364;2023-05-10T02:05:23;101838.47;;;11.84;77.49
79527;BME280;68974;47.754;-3.364;2023-05-10T02:07:50;101839.84;;;11.82;77.06
79527;BME280;68974;47.754;-3.364;2023-05-10T02:10:17;101847.78;;;11.78;77.71
79527;BME280;68974;47.754;-3.364;2023-05-10T02:12:44;101845.03;;;11.78;77.81
79527;BME280;68974;47.754;-3.364;2023-05-10T02:15:12;101842.22;;;11.73;78.05
79527;BME280;68974;47.754;-3.364;2023-05-10T02:17:42;101845.44;;;11.65;77.99
79527;BME280;68974;47.754;-3.364;2023-05-10T02:20:09;101843.16;;;11.57;78.76
79527;BME280;68974;47.754;-3.364;2023-05-10T02:22:36;101840.06;;;11.75;78.34
79527;BME280;68974;47.754;-3.364;2023-05-10T02:25:03;101841.41;;;11.73;78.19
79527;BME280;68974;47.754;-3.364;2023-05-10T02:27:29;101842.22;;;11.73;77.93
79527;BME280;68974;47.754;-3.364;2023-05-10T02:29:56;101834.16;;;11.66;78.42
79527;BME280;68974;47.754;-3.364;2023-05-10T02:32:24;101826.47;;;11.68;77.94
79527;BME280;68974;47.754;-3.364;2023-05-10T02:34:50;101838.84;;;11.66;78.78
79527;BME280;68974;47.754;-3.364;2023-05-10T02:37:19;101833.88;;;11.68;78.70
79527;BME280;68974;47.754;-3.364;2023-05-10T02:39:49;101824.44;;;11.59;78.42
79527;BME280;68974;47.754;-3.364;2023-05-10T02:42:17;101837.72;;;11.62;78.59
79527;BME280;68974;47.754;-3.364;2023-05-10T02:44:43;101834.53;;;11.75;78.19
79527;BME280;68974;47.754;-3.364;2023-05-10T02:47:10;101821.75;;;11.64;78.89
79527;BME280;68974;47.754;-3.364;2023-05-10T02:49:39;101838.78;;;11.61;79.20
79527;BME280;68974;47.754;-3.364;2023-05-10T02:52:05;101828.38;;;11.68;78.78
79527;BME280;68974;47.754;-3.364;2023-05-10T02:54:39;101831.22;;;11.73;78.74
79527;BME280;68974;47.754;-3.364;2023-05-10T02:57:07;101832.47;;;11.87;78.36
79527;BME280;68974;47.754;-3.364;2023-05-10T02:59:35;101835.00;;;11.99;77.77
79527;BME280;68974;47.754;-3.364;2023-05-10T03:02:02;101839.13;;;11.96;77.91
79527;BME280;68974;47.754;-3.364;2023-05-10T03:04:28;101835.91;;;12.09;77.67
79527;BME280;68974;47.754;-3.364;2023-05-10T03:06:54;101845.81;;;12.05;78.32
79527;BME280;68974;47.754;-3.364;2023-05-10T03:09:20;101827.72;;;12.20;78.07
79527;BME280;68974;47.754;-3.364;2023-05-10T03:12:04;101837.13;;;12.24;79.35
79527;BME280;68974;47.754;-3.364;2023-05-10T03:17:14;101844.56;;;12.28;80.10
79527;BME280;68974;47.754;-3.364;2023-05-10T03:20:08;101833.28;;;12.25;80.44
79527;BME280;68974;47.754;-3.364;2023-05-10T03:22:47;101838.16;;;12.18;80.04
79527;BME280;68974;47.754;-3.364;2023-05-10T03:25:16;101828.78;;;12.13;81.34
79527;BME280;68974;47.754;-3.364;2023-05-10T03:27:43;101829.31;;;12.10;80.55
79527;BME280;68974;47.754;-3.364;2023-05-10T03:30:11;101825.22;;;12.18;80.52
79527;BME280;68974;47.754;-3.364;2023-05-10T03:32:37;101822.19;;;12.14;80.25
79527;BME280;68974;47.754;-3.364;2023-05-10T03:35:09;101826.63;;;12.21;80.24
79527;BME280;68974;47.754;-3.364;2023-05-10T03:37:35;101830.94;;;12.06;80.29
79527;BME280;68974;47.754;-3.364;2023-05-10T03:40:01;101836.97;;;12.03;80.87
79527;BME280;68974;47.754;-3.364;2023-05-10T03:42:27;101830.34;;;11.99;80.69
79527;BME280;68974;47.754;-3.364;2023-05-10T03:44:53;101834.72;;;11.95;80.96
79527;BME280;68974;47.754;-3.364;2023-05-10T03:47:18;101830.34;;;11.99;81.11
79527;BME280;68974;47.754;-3.364;2023-05-10T03:49:43;101835.53;;;11.96;81.60
79527;BME280;68974;47.754;-3.364;2023-05-10T03:52:09;101828.91;;;11.92;81.13
79527;BME280;68974;47.754;-3.364;2023-05-10T03:54:34;101829.75;;;11.97;80.79
79527;BME280;68974;47.754;-3.364;2023-05-10T03:57:00;101835.25;;;11.92;81.10
79527;BME280;68974;47.754;-3.364;2023-05-10T03:59:26;101838.56;;;11.94;81.26
79527;BME280;68974;47.754;-3.364;2023-05-10T04:01:51;101836.28;;;11.86;81.15
79527;BME280;68974;47.754;-3.364;2023-05-10T04:04:17;101836.28;;;11.86;81.64
79527;BME280;68974;47.754;-3.364;2023-05-10T04:06:44;101833.59;;;11.91;81.34
79527;BME280;68974;47.754;-3.364;2023-05-10T04:09:10;101829.97;;;11.86;81.51
79527;BME280;68974;47.754;-3.364;2023-05-10T04:11:36;101829.91;;;11.81;81.30
79527;BME280;68974;47.754;-3.364;2023-05-10T04:14:01;101836.25;;;11.81;81.46
79527;BME280;68974;47.754;-3.364;2023-05-10T04:16:26;101831.25;;;11.78;82.05
79527;BME280;68974;47.754;-3.364;2023-05-10T04:18:52;101824.53;;;11.69;81.77
79527;BME280;68974;47.754;-3.364;2023-05-10T04:21:17;101834.97;;;11.62;82.05
79527;BME280;68974;47.754;-3.364;2023-05-10T04:23:42;101829.44;;;11.62;82.22
79527;BME280;68974;47.754;-3.364;2023-05-10T04:26:08;101832.22;;;11.62;82.17
79527;BME280;68974;47.754;-3.364;2023-05-10T04:28:33;101836.63;;;11.63;82.02
79527;BME280;68974;47.754;-3.364;2023-05-10T04:31:06;101832.72;;;11.59;81.84
79527;BME280;68974;47.754;-3.364;2023-05-10T04:33:32;101832.75;;;11.64;82.08
79527;BME280;68974;47.754;-3.364;2023-05-10T04:35:59;101834.91;;;11.57;82.54
79527;BME280;68974;47.754;-3.364;2023-05-10T04:38:24;101827.50;;;11.57;82.55
79527;BME280;68974;47.754;-3.364;2023-05-10T04:40:50;101831.31;;;11.56;82.77
79527;BME280;68974;47.754;-3.364;2023-05-10T04:43:15;101825.81;;;11.56;83.16
79527;BME280;68974;47.754;-3.364;2023-05-10T04:45:41;101831.06;;;11.58;82.35
79527;BME280;68974;47.754;-3.364;2023-05-10T04:48:06;101830.59;;;11.66;81.99
79527;BME280;68974;47.754;-3.364;2023-05-10T04:50:32;101835.06;;;11.72;82.34
79527;BME280;68974;47.754;-3.364;2023-05-10T04:52:58;101835.56;;;11.69;81.67
79527;BME280;68974;47.754;-3.364;2023-05-10T04:55:23;101837.47;;;11.68;81.46
79527;BME280;68974;47.754;-3.364;2023-05-10T04:57:49;101843.88;;;11.74;81.79
79527;BME280;68974;47.754;-3.364;2023-05-10T05:00:15;101844.31;;;11.61;81.87
79527;BME280;68974;47.754;-3.364;2023-05-10T05:02:44;101843.88;;;11.74;81.76
79527;BME280;68974;47.754;-3.364;2023-05-10T05:05:13;101848.88;;;11.77;81.99
79527;BME280;68974;47.754;-3.364;2023-05-10T05:07:38;101853.31;;;11.83;81.65
79527;BME280;68974;47.754;-3.364;2023-05-10T05:10:08;101845.72;;;11.95;81.08
79527;BME280;68974;47.754;-3.364;2023-05-10T05:12:34;101844.31;;;11.93;81.55
79527;BME280;68974;47.754;-3.364;2023-05-10T05:14:59;101838.56;;;11.94;81.50
79527;BME280;68974;47.754;-3.364;2023-05-10T05:17:25;101841.34;;;11.99;81.10
79527;BME280;68974;47.754;-3.364;2023-05-10T05:19:50;101846.94;;;12.09;81.03
79527;BME280;68974;47.754;-3.364;2023-05-10T05:22:16;101834.59;;;12.17;80.85
79527;BME280;68974;47.754;-3.364;2023-05-10T05:24:41;101844.84;;;12.22;80.22
79527;BME280;68974;47.754;-3.364;2023-05-10T05:27:07;101844.28;;;12.25;79.90
79527;BME280;68974;47.754;-3.364;2023-05-10T05:29:32;101851.75;;;12.29;80.07
79527;BME280;68974;47.754;-3.364;2023-05-10T05:31:58;101849.94;;;12.45;80.09
79527;BME280;68974;47.754;-3.364;2023-05-10T05:34:23;101852.72;;;12.50;79.57
79527;BME280;68974;47.754;-3.364;2023-05-10T05:36:49;101863.19;;;12.53;79.27
79527;BME280;68974;47.754;-3.364;2023-05-10T05:39:15;101865.91;;;12.48;79.46
79527;BME280;68974;47.754;-3.364;2023-05-10T05:41:40;101870.13;;;12.55;79.43
79527;BME280;68974;47.754;-3.364;2023-05-10T05:44:06;101866.53;;;12.55;79.24
79527;BME280;68974;47.754;-3.364;2023-05-10T05:46:31;101867.88;;;12.52;79.24
79527;BME280;68974;47.754;-3.364;2023-05-10T05:48:56;101862.66;;;12.51;79.31
79527;BME280;68974;47.754;-3.364;2023-05-10T05:51:22;101868.75;;;12.58;79.30
79527;BME280;68974;47.754;-3.364;2023-05-10T05:53:47;101852.50;;;12.67;78.94
79527;BME280;68974;47.754;-3.364;2023-05-10T05:56:13;101860.50;;;12.63;79.03
79527;BME280;68974;47.754;-3.364;2023-05-10T05:58:38;101871.25;;;12.65;79.29
79527;BME280;68974;47.754;-3.364;2023-05-10T06:01:04;101876.50;;;12.66;78.79
79527;BME280;68974;47.754;-3.364;2023-05-10T06:03:29;101872.66;;;12.72;79.12
79527;BME280;68974;47.754;-3.364;2023-05-10T06:05:54;101883.13;;;12.65;78.87
79527;BME280;68974;47.754;-3.364;2023-05-10T06:08:20;101878.13;;;12.62;79.25
79527;BME280;68974;47.754;-3.364;2023-05-10T06:10:46;101882.00;;;12.66;79.06
79527;BME280;68974;47.754;-3.364;2023-05-10T06:13:11;101877.31;;;12.67;79.09
79527;BME280;68974;47.754;-3.364;2023-05-10T06:15:37;101881.16;;;12.61;79.68
79527;BME280;68974;47.754;-3.364;2023-05-10T06:18:03;101878.69;;;12.64;79.51
79527;BME280;68974;47.754;-3.364;2023-05-10T06:20:28;101882.03;;;12.71;79.75
79527;BME280;68974;47.754;-3.364;2023-05-10T06:22:56;101879.31;;;12.76;79.37
79527;BME280;68974;47.754;-3.364;2023-05-10T06:25:22;101883.25;;;12.95;78.41
79527;BME280;68974;47.754;-3.364;2023-05-10T06:27:47;101883.00;;;13.02;77.67
79527;BME280;68974;47.754;-3.364;2023-05-10T06:30:14;101885.59;;;13.14;77.56
79527;BME280;68974;47.754;-3.364;2023-05-10T06:32:40;101877.59;;;13.22;76.93
79527;BME280;68974;47.754;-3.364;2023-05-10T06:35:07;101884.53;;;13.35;76.59
79527;BME280;68974;47.754;-3.364;2023-05-10T06:37:33;101890.66;;;13.47;75.79
79527;BME280;68974;47.754;-3.364;2023-05-10T06:39:59;101888.44;;;13.59;75.54
79527;BME280;68974;47.754;-3.364;2023-05-10T06:42:24;101891.78;;;13.66;74.96
79527;BME280;68974;47.754;-3.364;2023-05-10T06:44:50;101889.03;;;13.76;73.90
79527;BME280;68974;47.754;-3.364;2023-05-10T06:47:16;101893.75;;;13.86;74.13
79527;BME280;68974;47.754;-3.364;2023-05-10T06:49:42;101894.00;;;13.84;73.86
79527;BME280;68974;47.754;-3.364;2023-05-10T06:52:07;101890.16;;;13.91;73.48
79527;BME280;68974;47.754;-3.364;2023-05-10T06:54:33;101897.34;;;14.02;72.27
79527;BME280;68974;47.754;-3.364;2023-05-10T06:56:58;101892.34;;;14.09;71.67
79527;BME280;68974;47.754;-3.364;2023-05-10T06:59:23;101887.66;;;14.19;71.25
79527;BME280;68974;47.754;-3.364;2023-05-10T07:01:49;101886.56;;;14.20;71.36
79527;BME280;68974;47.754;-3.364;2023-05-10T07:04:14;101890.69;;;14.28;71.18
79527;BME280;68974;47.754;-3.364;2023-05-10T07:06:39;101889.34;;;14.41;70.40
79527;BME280;68974;47.754;-3.364;2023-05-10T07:09:05;101884.56;;;14.61;69.58
79527;BME280;68974;47.754;-3.364;2023-05-10T07:11:30;101890.94;;;14.67;69.72
79527;BME280;68974;47.754;-3.364;2023-05-10T07:13:56;101885.41;;;14.62;69.25
79527;BME280;68974;47.754;-3.364;2023-05-10T07:16:21;101885.69;;;14.70;69.43
79527;BME280;68974;47.754;-3.364;2023-05-10T07:18:47;101897.19;;;14.98;69.00
79527;BME280;68974;47.754;-3.364;2023-05-10T07:21:12;101890.47;;;15.19;67.74
79527;BME280;68974;47.754;-3.364;2023-05-10T07:23:38;101884.88;;;15.29;68.71
79527;BME280;68974;47.754;-3.364;2023-05-10T07:26:03;101891.97;;;15.45;68.09
79527;BME280;68974;47.754;-3.364;2023-05-10T07:28:29;101904.13;;;15.54;67.69
79527;BME280;68974;47.754;-3.364;2023-05-10T07:30:54;101892.09;;;15.25;69.78
79527;BME280;68974;47.754;-3.364;2023-05-10T07:33:20;101900.44;;;15.15;70.78
79527;BME280;68974;47.754;-3.364;2023-05-10T07:35:45;101896.59;;;15.06;71.12
79527;BME280;68974;47.754;-3.364;2023-05-10T07:38:10;101899.16;;;14.87;71.56
79527;BME280;68974;47.754;-3.364;2023-05-10T07:40:36;101894.50;;;14.78;72.95
79527;BME280;68974;47.754;-3.364;2023-05-10T07:43:02;101894.78;;;14.71;74.62
79527;BME280;68974;47.754;-3.364;2023-05-10T07:45:28;101897.31;;;14.47;73.81
79527;BME280;68974;47.754;-3.364;2023-05-10T07:47:53;101900.38;;;14.36;75.59
79527;BME280;68974;47.754;-3.364;2023-05-10T07:50:18;101893.44;;;14.53;74.10
79527;BME280;68974;47.754;-3.364;2023-05-10T07:52:44;101886.81;;;14.59;72.37
79527;BME280;68974;47.754;-3.364;2023-05-10T07:55:10;101883.44;;;14.78;72.38
79527;BME280;68974;47.754;-3.364;2023-05-10T07:57:35;101889.84;;;15.32;71.13
79527;BME280;68974;47.754;-3.364;2023-05-10T08:00:01;101882.13;;;16.12;68.74
79527;BME280;68974;47.754;-3.364;2023-05-10T08:02:27;101877.34;;;16.46;66.17
79527;BME280;68974;47.754;-3.364;2023-05-10T08:04:52;101888.91;;;16.54;66.27
79527;BME280;68974;47.754;-3.364;2023-05-10T08:07:18;101886.06;;;16.35;64.40
79527;BME280;68974;47.754;-3.364;2023-05-10T08:09:43;101891.28;;;16.41;65.10
79527;BME280;68974;47.754;-3.364;2023-05-10T08:12:08;101888.00;;;16.87;64.14
79527;BME280;68974;47.754;-3.364;2023-05-10T08:14:34;101895.00;;;16.84;61.30
79527;BME280;68974;47.754;-3.364;2023-05-10T08:17:02;101892.59;;;17.20;60.14
79527;BME280;68974;47.754;-3.364;2023-05-10T08:19:28;101894.59;;;17.39;58.66
79527;BME280;68974;47.754;-3.364;2023-05-10T08:21:53;101884.97;;;17.50;59.43
79527;BME280;68974;47.754;-3.364;2023-05-10T08:24:21;101884.03;;;17.59;58.67
79527;BME280;68974;47.754;-3.364;2023-05-10T08:26:46;101886.56;;;17.74;57.71
79527;BME280;68974;47.754;-3.364;2023-05-10T08:29:12;101876.84;;;18.09;56.88
79527;BME280;68974;47.754;-3.364;2023-05-10T08:31:38;101886.25;;;18.59;55.69
79527;BME280;68974;47.754;-3.364;2023-05-10T08:34:03;101881.31;;;18.97;54.59
79527;BME280;68974;47.754;-3.364;2023-05-10T08:36:29;101877.19;;;18.54;55.98
79527;BME280;68974;47.754;-3.364;2023-05-10T08:38:55;101902.88;;;17.81;57.65
79527;BME280;68974;47.754;-3.364;2023-05-10T08:41:21;101901.34;;;17.32;59.85
79527;BME280;68974;47.754;-3.364;2023-05-10T08:43:47;101898.16;;;17.20;59.77
79527;BME280;68974;47.754;-3.364;2023-05-10T08:46:17;101898.91;;;17.26;60.21
79527;BME280;68974;47.754;-3.364;2023-05-10T08:48:44;101897.63;;;17.18;59.94
79527;BME280;68974;47.754;-3.364;2023-05-10T08:51:13;101888.81;;;17.11;58.97
79527;BME280;68974;47.754;-3.364;2023-05-10T08:53:39;101902.13;;;16.67;59.66
79527;BME280;68974;47.754;-3.364;2023-05-10T08:56:05;101898.88;;;16.60;60.75
79527;BME280;68974;47.754;-3.364;2023-05-10T08:58:31;101895.66;;;16.14;61.82
79527;BME280;68974;47.754;-3.364;2023-05-10T09:00:57;101905.41;;;15.77;63.47
79527;BME280;68974;47.754;-3.364;2023-05-10T09:03:23;101900.78;;;15.63;63.63
79527;BME280;68974;47.754;-3.364;2023-05-10T09:05:49;101895.34;;;16.78;60.03
79527;BME280;68974;47.754;-3.364;2023-05-10T09:08:15;101894.97;;;18.07;57.48
79527;BME280;68974;47.754;-3.364;2023-05-10T09:10:45;101900.41;;;18.44;56.15
79527;BME280;68974;47.754;-3.364;2023-05-10T09:13:14;101908.81;;;18.26;57.77
79527;BME280;68974;47.754;-3.364;2023-05-10T09:15:40;101909.94;;;17.92;57.99
79527;BME280;68974;47.754;-3.364;2023-05-10T09:18:05;101907.88;;;17.42;61.39
79527;BME280;68974;47.754;-3.364;2023-05-10T09:20:31;101911.53;;;17.37;63.12
79527;BME280;68974;47.754;-3.364;2023-05-10T09:22:56;101915.19;;;17.75;61.93
79527;BME280;68974;47.754;-3.364;2023-05-10T09:25:22;101906.50;;;17.63;60.38
79527;BME280;68974;47.754;-3.364;2023-05-10T09:27:48;101910.22;;;18.42;59.85
79527;BME280;68974;47.754;-3.364;2023-05-10T09:30:31;101913.63;;;18.52;57.91
79527;BME280;68974;47.754;-3.364;2023-05-10T09:32:58;101911.97;;;18.19;59.81
79527;BME280;68974;47.754;-3.364;2023-05-10T09:35:26;101904.06;;;17.75;60.05
79527;BME280;68974;47.754;-3.364;2023-05-10T09:37:54;101910.03;;;17.02;63.06
79527;BME280;68974;47.754;-3.364;2023-05-10T09:40:22;101913.75;;;16.69;60.04
79527;BME280;68974;47.754;-3.364;2023-05-10T09:45:28;101921.50;;;16.09;61.22
79527;BME280;68974;47.754;-3.364;2023-05-10T09:47:54;101911.47;;;16.13;60.71
79527;BME280;68974;47.754;-3.364;2023-05-10T09:50:21;101912.88;;;16.11;61.70
79527;BME280;68974;47.754;-3.364;2023-05-10T09:52:58;101920.00;;;15.88;62.21
79527;BME280;68974;47.754;-3.364;2023-05-10T09:58:01;101933.84;;;15.88;63.17
79527;BME280;68974;47.754;-3.364;2023-05-10T10:00:27;101918.66;;;16.48;61.81
79527;BME280;68974;47.754;-3.364;2023-05-10T10:02:58;101919.34;;;17.59;56.47
79527;BME280;68974;47.754;-3.364;2023-05-10T10:05:35;101914.41;;;17.51;55.43
79527;BME280;68974;47.754;-3.364;2023-05-10T10:08:03;101910.97;;;17.16;57.39
79527;BME280;68974;47.754;-3.364;2023-05-10T10:10:30;101914.75;;;17.02;59.97
79527;BME280;68974;47.754;-3.364;2023-05-10T10:12:56;101914.44;;;17.27;61.26
79527;BME280;68974;47.754;-3.364;2023-05-10T10:15:23;101915.47;;;17.12;60.77
79527;BME280;68974;47.754;-3.364;2023-05-10T10:17:49;101914.94;;;16.86;61.96
79527;BME280;68974;47.754;-3.364;2023-05-10T10:20:15;101913.88;;;16.54;64.89
79527;BME280;68974;47.754;-3.364;2023-05-10T10:22:41;101916.19;;;16.13;66.10
79527;BME280;68974;47.754;-3.364;2023-05-10T10:25:07;101918.34;;;15.87;68.08
79527;BME280;68974;47.754;-3.364;2023-05-10T10:35:19;101922.56;;;16.13;71.18
79527;BME280;68974;47.754;-3.364;2023-05-10T10:37:46;101915.13;;;16.37;70.85
79527;BME280;68974;47.754;-3.364;2023-05-10T10:40:32;101921.97;;;16.50;69.92
79527;BME280;68974;47.754;-3.364;2023-05-10T10:42:58;101914.84;;;16.39;69.55
79527;BME280;68974;47.754;-3.364;2023-05-10T10:45:43;101911.47;;;16.42;67.87
79527;BME280;68974;47.754;-3.364;2023-05-10T10:48:22;101901.59;;;16.65;66.05
79527;BME280;68974;47.754;-3.364;2023-05-10T10:50:56;101904.56;;;17.40;65.41
79527;BME280;68974;47.754;-3.364;2023-05-10T10:53:21;101900.81;;;18.38;61.46
79527;BME280;68974;47.754;-3.364;2023-05-10T10:55:47;101889.47;;;18.94;59.38
79527;BME280;68974;47.754;-3.364;2023-05-10T10:58:29;101896.03;;;18.25;59.55
79527;BME280;68974;47.754;-3.364;2023-05-10T11:01:14;101891.66;;;17.49;62.02
79527;BME280;68974;47.754;-3.364;2023-05-10T11:03:41;101905.03;;;17.04;67.16
79527;BME280;68974;47.754;-3.364;2023-05-10T11:06:31;101904.53;;;16.44;69.92
79527;BME280;68974;47.754;-3.364;2023-05-10T11:08:58;101914.03;;;16.04;70.06
79527;BME280;68974;47.754;-3.364;2023-05-10T11:11:24;101912.44;;;15.54;70.85
79527;BME280;68974;47.754;-3.364;2023-05-10T11:13:50;101916.50;;;15.18;71.21
79527;BME280;68974;47.754;-3.364;2023-05-10T11:16:21;101907.63;;;15.16;72.58
79527;BME280;68974;47.754;-3.364;2023-05-10T11:19:08;101899.88;;;15.18;72.12
79527;BME280;68974;47.754;-3.364;2023-05-10T11:24:14;101903.75;;;17.58;65.22
79527;BME280;68974;47.754;-3.364;2023-05-10T11:26:40;101894.88;;;17.56;65.82
79527;BME280;68974;47.754;-3.364;2023-05-10T11:29:06;101894.63;;;17.76;64.01
79527;BME280;68974;47.754;-3.364;2023-05-10T11:31:31;101889.56;;;18.89;59.84
79527;BME280;68974;47.754;-3.364;2023-05-10T11:33:58;101887.47;;;19.49;60.72
79527;BME280;68974;47.754;-3.364;2023-05-10T11:36:31;101894.28;;;20.37;58.66
79527;BME280;68974;47.754;-3.364;2023-05-10T11:38:57;101875.72;;;19.74;55.62
79527;BME280;68974;47.754;-3.364;2023-05-10T11:41:24;101884.47;;;19.81;55.31
79527;BME280;68974;47.754;-3.364;2023-05-10T11:43:51;101886.13;;;19.33;57.12
79527;BME280;68974;47.754;-3.364;2023-05-10T11:46:22;101892.00;;;19.31;58.53
79527;BME280;68974;47.754;-3.364;2023-05-10T11:48:52;101887.47;;;18.53;58.64
79527;BME280;68974;47.754;-3.364;2023-05-10T11:51:22;101894.72;;;18.03;59.89
79527;BME280;68974;47.754;-3.364;2023-05-10T11:53:50;101902.34;;;17.60;60.16
79527;BME280;68974;47.754;-3.364;2023-05-10T11:56:15;101894.19;;;17.69;63.34
79527;BME280;68974;47.754;-3.364;2023-05-10T11:58:41;101896.72;;;17.65;61.21
79527;BME280;68974;47.754;-3.364;2023-05-10T12:01:08;101898.50;;;17.75;60.40
79527;BME280;68974;47.754;-3.364;2023-05-10T12:03:34;101891.59;;;17.91;59.39
79527;BME280;68974;47.754;-3.364;2023-05-10T12:06:01;101886.13;;;18.18;57.54
79527;BME280;68974;47.754;-3.364;2023-05-10T12:08:29;101874.50;;;19.17;53.88
79527;BME280;68974;47.754;-3.364;2023-05-10T12:11:05;101875.75;;;20.41;50.44
79527;BME280;68974;47.754;-3.364;2023-05-10T12:13:31;101880.53;;;20.80;49.45
79527;BME280;68974;47.754;-3.364;2023-05-10T12:15:57;101880.94;;;20.34;49.21
79527;BME280;68974;47.754;-3.364;2023-05-10T12:18:23;101885.13;;;20.01;52.18
79527;BME280;68974;47.754;-3.364;2023-05-10T12:20:52;101881.81;;;19.76;51.80
79527;BME280;68974;47.754;-3.364;2023-05-10T12:23:21;101871.91;;;19.70;52.13
79527;BME280;68974;47.754;-3.364;2023-05-10T12:25:46;101875.50;;;19.35;53.81
79527;BME280;68974;47.754;-3.364;2023-05-10T12:28:12;101880.09;;;19.89;51.02
79527;BME280;68974;47.754;-3.364;2023-05-10T12:30:38;101864.75;;;20.75;51.39
79527;BME280;68974;47.754;-3.364;2023-05-10T12:33:12;101872.59;;;20.73;50.80
79527;BME280;68974;47.754;-3.364;2023-05-10T12:35:52;101881.97;;;19.94;50.58
79527;BME280;68974;47.754;-3.364;2023-05-10T12:41:14;101899.25;;;17.99;54.35
79527;BME280;68974;47.754;-3.364;2023-05-10T12:43:40;101896.00;;;17.55;57.14
79527;BME280;68974;47.754;-3.364;2023-05-10T12:46:16;101892.78;;;17.29;58.55
79527;BME280;68974;47.754;-3.364;2023-05-10T12:48:43;101892.16;;;17.13;59.50
79527;BME280;68974;47.754;-3.364;2023-05-10T12:51:09;101897.03;;;17.40;59.11
79527;BME280;68974;47.754;-3.364;2023-05-10T12:53:37;101893.50;;;18.09;55.88
79527;BME280;68974;47.754;-3.364;2023-05-10T12:56:03;101882.88;;;19.03;54.36
79527;BME280;68974;47.754;-3.364;2023-05-10T12:58:29;101864.06;;;20.17;50.36
79527;BME280;68974;47.754;-3.364;2023-05-10T13:00:54;101869.41;;;20.27;50.24
79527;BME280;68974;47.754;-3.364;2023-05-10T13:03:21;101879.28;;;20.33;51.25
79527;BME280;68974;47.754;-3.364;2023-05-10T13:05:47;101883.09;;;20.15;50.89
79527;BME280;68974;47.754;-3.364;2023-05-10T13:08:12;101879.31;;;19.88;51.77
79527;BME280;68974;47.754;-3.364;2023-05-10T13:10:37;101881.47;;;19.42;52.77
79527;BME280;68974;47.754;-3.364;2023-05-10T13:13:03;101871.19;;;19.01;54.17
79527;BME280;68974;47.754;-3.364;2023-05-10T13:15:28;101874.63;;;18.39;54.38